Time;durP1;ratioP1;P1;durP2;ratioP2;P2;SDS_P1;SDS_P2;PMS_P1;PMS_P2;Temp;Humidity;BMP_temperature;BMP_pressure;BME280_temperature;BME280_humidity;BME280_pressure;Samples;Min_cycle;Max_cycle;Signal;HPM_P1;HPM_P2
2021/09/16 00:01:31;;;;;;;22.63;14.15;;;;;;;16.69;100.00;96576.81;5023027;28;20049;-66
2021/09/16 00:03:56;;;;;;;29.58;14.48;;;;;;;16.63;100.00;96571.72;5025712;28;20041;-65
2021/09/16 00:06:22;;;;;;;28.10;13.98;;;;;;;16.60;100.00;96572.56;5016200;28;20157;-65
2021/09/16 00:08:47;;;;;;;31.52;15.45;;;;;;;16.57;100.00;96567.84;5032588;28;20037;-66
2021/09/16 00:11:13;;;;;;;27.95;14.88;;;;;;;16.51;100.00;96565.94;5016982;28;20123;-67
2021/09/16 00:13:38;;;;;;;28.27;14.40;;;;;;;16.48;100.00;96570.31;5019789;28;20052;-64
2021/09/16 00:16:04;;;;;;;21.55;12.43;;;;;;;16.51;100.00;96566.72;5019108;28;20042;-63
2021/09/16 00:18:30;;;;;;;22.73;13.02;;;;;;;16.56;100.00;96574.56;5022497;28;20053;-64
2021/09/16 00:20:56;;;;;;;21.88;13.10;;;;;;;16.62;100.00;96566.63;5020320;28;20189;-64
2021/09/16 00:23:21;;;;;;;23.73;11.55;;;;;;;16.67;100.00;96568.94;5027407;28;23141;-64
2021/09/16 00:25:46;;;;;;;22.38;11.05;;;;;;;16.66;100.00;96577.66;5024546;28;20049;-65
2021/09/16 00:28:12;;;;;;;20.58;11.85;;;;;;;16.51;100.00;96568.69;5024016;28;20065;-64
2021/09/16 00:30:37;;;;;;;19.40;11.43;;;;;;;16.43;100.00;96577.03;5038714;28;20030;-64
2021/09/16 00:33:03;;;;;;;22.00;12.02;;;;;;;16.47;100.00;96590.84;5028137;28;20048;-65
2021/09/16 00:35:29;;;;;;;21.45;12.60;;;;;;;16.49;100.00;96587.66;5032171;28;20829;-64
2021/09/16 00:37:55;;;;;;;17.13;11.23;;;;;;;16.43;100.00;96587.31;5033911;28;20044;-64
2021/09/16 00:40:21;;;;;;;19.23;11.70;;;;;;;16.43;100.00;96579.81;5028451;28;20037;-66
2021/09/16 00:42:47;;;;;;;23.10;12.50;;;;;;;16.40;100.00;96583.41;5040114;28;20033;-66
2021/09/16 00:45:13;;;;;;;22.40;13.23;;;;;;;16.42;100.00;96575.50;5026485;28;20497;-66
2021/09/16 00:47:45;;;;;;;26.02;13.52;;;;;;;16.46;100.00;96578.22;5020835;28;20429;-66
2021/09/16 00:50:16;;;;;;;25.63;11.85;;;;;;;16.55;100.00;96572.22;5025899;28;20145;-64
2021/09/16 00:52:42;;;;;;;21.73;12.70;;;;;;;16.51;100.00;96572.25;5041699;28;20041;-66
2021/09/16 00:55:11;;;;;;;23.02;12.27;;;;;;;16.42;100.00;96575.50;5050035;28;20332;-64
2021/09/16 00:57:45;;;;;;;29.03;13.97;;;;;;;16.36;100.00;96571.56;5037282;28;20045;-64
2021/09/16 01:00:11;;;;;;;25.33;12.38;;;;;;;16.36;100.00;96562.50;5027883;28;20045;-63
2021/09/16 01:02:36;;;;;;;25.75;12.43;;;;;;;16.40;100.00;96561.31;5017977;28;20051;-66
2021/09/16 01:05:04;;;;;;;27.17;13.55;;;;;;;16.42;100.00;96563.63;5032703;28;20498;-66
2021/09/16 01:07:30;;;;;;;21.92;12.75;;;;;;;16.35;100.00;96561.72;5038679;28;20041;-64
2021/09/16 01:09:58;;;;;;;26.67;13.40;;;;;;;16.38;100.00;96558.13;5033150;28;20049;-65
2021/09/16 01:12:23;;;;;;;20.85;12.65;;;;;;;16.37;100.00;96550.28;5020175;28;20270;-65
2021/09/16 01:14:49;;;;;;;18.85;11.55;;;;;;;16.35;100.00;96538.81;5022326;28;20491;-66
2021/09/16 01:17:14;;;;;;;24.63;12.38;;;;;;;16.30;100.00;96537.28;5016710;28;20061;-66
2021/09/16 01:19:40;;;;;;;23.42;12.63;;;;;;;16.26;100.00;96533.78;5044978;28;20157;-66
2021/09/16 01:22:08;;;;;;;22.05;13.38;;;;;;;16.24;100.00;96536.16;5029792;28;20098;-67
2021/09/16 01:24:33;;;;;;;18.65;11.32;;;;;;;16.32;100.00;96534.13;5023519;28;20045;-64
2021/09/16 01:26:58;;;;;;;25.55;13.30;;;;;;;16.32;100.00;96529.38;5031405;28;20464;-66
2021/09/16 01:29:24;;;;;;;24.55;13.02;;;;;;;16.30;100.00;96528.22;5020491;28;20836;-64
2021/09/16 01:31:50;;;;;;;19.27;12.20;;;;;;;16.33;100.00;96522.66;5028189;28;20045;-65
2021/09/16 01:34:17;;;;;;;19.02;11.88;;;;;;;16.35;100.00;96528.56;5022776;28;20041;-65
2021/09/16 01:36:45;;;;;;;18.42;11.48;;;;;;;16.38;100.00;96533.25;5041620;28;20124;-65
2021/09/16 01:39:13;;;;;;;25.75;12.43;;;;;;;16.35;100.00;96536.06;5019661;28;20065;-66
2021/09/16 01:41:38;;;;;;;23.58;12.80;;;;;;;16.36;100.00;96537.63;5047019;28;20048;-66
2021/09/16 01:44:04;;;;;;;20.23;11.57;;;;;;;16.35;100.00;96544.34;5026350;28;20517;-68
2021/09/16 01:46:30;;;;;;;24.52;11.90;;;;;;;16.41;100.00;96551.78;5033297;28;20386;-66
2021/09/16 01:48:58;;;;;;;20.13;11.45;;;;;;;16.46;100.00;96550.59;5036073;28;20041;-65
2021/09/16 01:51:23;;;;;;;21.25;10.98;;;;;;;16.48;100.00;96555.72;5018761;28;20633;-65
2021/09/16 01:53:49;;;;;;;20.70;10.77;;;;;;;16.50;100.00;96558.84;5025115;28;20136;-65
2021/09/16 01:56:14;;;;;;;23.08;11.38;;;;;;;16.49;100.00;96562.78;5020599;28;20099;-64
2021/09/16 01:58:40;;;;;;;24.92;10.98;;;;;;;16.57;100.00;96554.03;5028369;28;20036;-66
2021/09/16 02:01:05;;;;;;;18.35;10.07;;;;;;;16.63;100.00;96557.13;5023450;28;20046;-66
2021/09/16 02:03:31;;;;;;;16.88;10.95;;;;;;;16.62;100.00;96558.34;5019119;28;20048;-65
2021/09/16 02:05:57;;;;;;;18.80;9.77;;;;;;;16.77;100.00;96556.19;5032074;28;20041;-67
2021/09/16 02:08:23;;;;;;;17.15;10.27;;;;;;;16.82;100.00;96561.28;5035553;28;20495;-64
2021/09/16 02:10:48;;;;;;;15.35;9.55;;;;;;;16.81;100.00;96560.47;5045994;28;20045;-67
2021/09/16 02:13:14;;;;;;;11.40;8.10;;;;;;;16.80;100.00;96556.16;5048845;28;20064;-66
2021/09/16 02:15:39;;;;;;;16.90;8.63;;;;;;;16.75;100.00;96559.38;5022904;28;20570;-66
2021/09/16 02:18:04;;;;;;;16.15;8.95;;;;;;;16.59;100.00;96559.16;5018924;28;20071;-63
2021/09/16 02:20:30;;;;;;;15.07;9.35;;;;;;;16.49;100.00;96566.31;5018882;28;20034;-66
2021/09/16 02:22:56;;;;;;;15.05;9.32;;;;;;;16.41;100.00;96554.56;5033655;28;20120;-64
2021/09/16 02:25:21;;;;;;;19.45;10.13;;;;;;;16.35;100.00;96547.09;5036891;28;20588;-64
2021/09/16 02:27:47;;;;;;;20.98;10.48;;;;;;;16.33;100.00;96552.25;5037264;28;20041;-64
2021/09/16 02:30:13;;;;;;;20.30;11.48;;;;;;;16.29;100.00;96551.50;5028570;28;20068;-65
2021/09/16 02:32:39;;;;;;;17.17;10.85;;;;;;;16.30;100.00;96551.13;5025636;28;20083;-66
2021/09/16 02:35:05;;;;;;;21.63;11.95;;;;;;;16.28;100.00;96550.75;5023756;28;20061;-66
2021/09/16 02:37:30;;;;;;;20.30;12.00;;;;;;;16.26;100.00;96555.91;5034503;28;20052;-65
2021/09/16 02:39:56;;;;;;;19.63;11.30;;;;;;;16.23;100.00;96538.13;5035055;28;20390;-65
2021/09/16 02:42:21;;;;;;;23.42;13.23;;;;;;;16.20;100.00;96551.97;5033413;28;20813;-66
2021/09/16 02:44:47;;;;;;;21.27;12.75;;;;;;;16.19;100.00;96548.44;5034927;28;20056;-66
2021/09/16 02:47:12;;;;;;;21.60;12.48;;;;;;;16.18;100.00;96544.09;5032223;28;20033;-65
2021/09/16 02:49:38;;;;;;;19.33;11.48;;;;;;;16.18;100.00;96544.09;5026856;28;20105;-65
2021/09/16 02:52:04;;;;;;;21.52;11.27;;;;;;;16.31;100.00;96549.13;5030778;28;20037;-65
2021/09/16 02:54:30;;;;;;;18.23;10.98;;;;;;;16.48;100.00;96556.47;5040049;28;20045;-65
2021/09/16 02:56:55;;;;;;;17.30;11.77;;;;;;;16.59;100.00;96548.88;5030726;28;20056;-66
2021/09/16 02:59:21;;;;;;;17.77;11.10;;;;;;;16.62;100.00;96548.06;5033282;28;20545;-66
2021/09/16 03:01:46;;;;;;;20.27;10.45;;;;;;;16.68;100.00;96550.38;5036831;28;20048;-65
2021/09/16 03:04:11;;;;;;;19.98;10.10;;;;;;;16.74;100.00;96548.72;5023861;28;20061;-66
2021/09/16 03:06:37;;;;;;;16.17;10.05;;;;;;;16.78;100.00;96544.72;5036294;28;20123;-66
2021/09/16 03:09:03;;;;;;;19.98;10.00;;;;;;;16.83;100.00;96535.22;5029784;28;20521;-68
2021/09/16 03:11:28;;;;;;;17.73;9.80;;;;;;;17.00;100.00;96539.78;5015743;28;20906;-65
2021/09/16 03:13:54;;;;;;;14.05;9.00;;;;;;;17.20;100.00;96541.91;5022413;28;20094;-64
2021/09/16 03:16:19;;;;;;;16.98;8.95;;;;;;;17.17;100.00;96543.50;5029568;28;20088;-65
2021/09/16 03:18:45;;;;;;;15.45;9.35;;;;;;;17.14;100.00;96538.81;5033354;28;20494;-67
2021/09/16 03:21:10;;;;;;;15.00;9.75;;;;;;;17.08;100.00;96534.16;5024902;28;20041;-65
2021/09/16 03:23:35;;;;;;;17.25;11.02;;;;;;;16.93;100.00;96539.06;5039024;28;20041;-65
2021/09/16 03:26:01;;;;;;;21.20;11.35;;;;;;;16.71;100.00;96536.50;5034545;28;20879;-65
2021/09/16 03:28:26;;;;;;;19.77;9.98;;;;;;;16.66;100.00;96536.19;5029716;28;20056;-66
2021/09/16 03:30:52;;;;;;;13.93;10.13;;;;;;;16.70;100.00;96534.16;5030240;28;20037;-66
2021/09/16 03:33:17;;;;;;;22.50;10.68;;;;;;;16.71;100.00;96538.47;5027629;28;20485;-66
2021/09/16 03:35:43;;;;;;;20.52;10.45;;;;;;;16.67;100.00;96534.97;5035775;28;20083;-69
2021/09/16 03:38:08;;;;;;;21.05;11.18;;;;;;;16.52;100.00;96531.56;5031789;28;20545;-66
2021/09/16 03:40:33;;;;;;;14.75;9.82;;;;;;;16.52;100.00;96526.81;5037998;28;20041;-65
2021/09/16 03:42:59;;;;;;;21.17;10.75;;;;;;;16.60;100.00;96528.31;5026377;28;20097;-65
2021/09/16 03:45:24;;;;;;;15.20;10.15;;;;;;;16.66;100.00;96520.38;5018169;28;20437;-66
2021/09/16 03:47:50;;;;;;;22.13;10.52;;;;;;;16.69;100.00;96532.56;5036829;28;20498;-66
2021/09/16 03:50:16;;;;;;;18.48;9.88;;;;;;;16.70;100.00;96534.16;5027876;28;20067;-66
2021/09/16 03:52:43;;;;;;;18.67;11.57;;;;;;;16.71;100.00;96532.94;5033142;28;20145;-66
2021/09/16 03:55:09;;;;;;;18.92;10.73;;;;;;;16.60;100.00;96535.81;5030568;28;20080;-66
2021/09/16 03:57:34;;;;;;;18.35;11.50;;;;;;;16.56;100.00;96538.63;5034161;28;20041;-64
2021/09/16 04:00:00;;;;;;;14.95;10.93;;;;;;;16.56;100.00;96541.38;5025458;28;20045;-66
2021/09/16 04:02:28;;;;;;;22.17;11.02;;;;;;;16.56;100.00;96544.16;5026098;28;20064;-66
2021/09/16 04:04:54;;;;;;;20.52;12.82;;;;;;;16.55;100.00;96548.13;5031152;28;20399;-65
2021/09/16 04:07:19;;;;;;;21.85;11.32;;;;;;;16.52;100.00;96537.09;5032325;28;20045;-65
2021/09/16 04:09:45;;;;;;;21.42;11.48;;;;;;;16.39;100.00;96550.66;5033777;28;20048;-66
2021/09/16 04:12:10;;;;;;;21.35;12.88;;;;;;;16.22;100.00;96546.81;5038186;28;20108;-65
2021/09/16 04:14:35;;;;;;;23.55;13.77;;;;;;;16.16;100.00;96549.25;5029320;28;20041;-65
2021/09/16 04:17:01;;;;;;;23.92;13.57;;;;;;;16.16;100.00;96551.22;5014294;28;20037;-65
2021/09/16 04:19:26;;;;;;;24.20;13.00;;;;;;;16.14;100.00;96548.88;5028081;28;20045;-65
2021/09/16 04:21:52;;;;;;;23.90;13.90;;;;;;;16.13;100.00;96547.28;5030629;28;20123;-66
2021/09/16 04:24:17;;;;;;;18.55;11.90;;;;;;;16.15;100.00;96544.13;5032009;28;20050;-66
2021/09/16 04:26:44;;;;;;;24.45;14.88;;;;;;;16.23;100.00;96542.88;5022583;28;20427;-67
2021/09/16 04:29:10;;;;;;;21.60;12.13;;;;;;;16.34;100.00;96540.81;5016039;28;20041;-67
2021/09/16 04:31:36;;;;;;;15.52;10.90;;;;;;;16.40;100.00;96543.91;5033236;28;20045;-65
2021/09/16 04:34:01;;;;;;;22.75;13.15;;;;;;;16.43;100.00;96549.41;5029198;28;20151;-65
2021/09/16 04:36:26;;;;;;;18.45;11.48;;;;;;;16.46;100.00;96552.53;5024761;28;20053;-65
2021/09/16 04:38:52;;;;;;;20.55;12.70;;;;;;;16.49;100.00;96560.81;5030253;28;20041;-66
2021/09/16 04:41:17;;;;;;;22.05;13.82;;;;;;;16.43;100.00;96552.16;5027919;28;20041;-64
2021/09/16 04:43:42;;;;;;;21.80;12.50;;;;;;;16.33;100.00;96564.13;5024541;28;20118;-65
2021/09/16 04:46:08;;;;;;;16.15;11.10;;;;;;;16.41;100.00;96562.84;5028634;28;20133;-65
2021/09/16 04:48:33;;;;;;;18.13;12.15;;;;;;;16.52;100.00;96559.22;5028268;28;20045;-67
2021/09/16 04:50:59;;;;;;;23.80;12.38;;;;;;;16.56;100.00;96551.66;5032115;28;20065;-66
2021/09/16 04:53:24;;;;;;;20.48;12.23;;;;;;;16.56;100.00;96566.25;5030876;28;20072;-66
2021/09/16 04:55:49;;;;;;;20.17;12.57;;;;;;;16.48;100.00;96564.78;5041188;28;20324;-66
2021/09/16 04:58:15;;;;;;;22.02;13.35;;;;;;;16.54;100.00;96567.88;5030263;28;20151;-66
2021/09/16 05:00:40;;;;;;;27.15;13.32;;;;;;;16.51;100.00;96555.66;5027221;28;20042;-66
2021/09/16 05:03:06;;;;;;;21.02;12.85;;;;;;;16.29;100.00;96554.28;5022664;28;20037;-66
2021/09/16 05:05:32;;;;;;;20.38;12.00;;;;;;;16.26;100.00;96561.41;5032249;28;20036;-66
2021/09/16 05:07:58;;;;;;;26.42;12.48;;;;;;;16.19;100.00;96565.00;5023700;28;20053;-66
2021/09/16 05:10:23;;;;;;;19.95;12.20;;;;;;;16.22;100.00;96566.16;5020074;28;20049;-65
2021/09/16 05:12:48;;;;;;;23.70;12.75;;;;;;;16.24;100.00;96564.59;5020234;28;20073;-66
2021/09/16 05:15:14;;;;;;;29.15;14.80;;;;;;;16.34;100.00;96567.66;5022565;28;20521;-67
2021/09/16 05:17:39;;;;;;;28.55;15.23;;;;;;;16.47;100.00;96567.94;5031062;28;20041;-66
2021/09/16 05:20:05;;;;;;;27.88;15.02;;;;;;;16.50;100.00;96572.66;5023938;28;20044;-63
2021/09/16 05:22:30;;;;;;;26.63;14.05;;;;;;;16.44;100.00;96567.56;5028017;28;20551;-64
2021/09/16 05:24:56;;;;;;;28.13;15.30;;;;;;;16.46;100.00;96571.88;5030089;28;20103;-64
2021/09/16 05:27:21;;;;;;;27.00;14.35;;;;;;;16.53;100.00;96569.06;5020692;28;20065;-64
2021/09/16 05:29:47;;;;;;;35.22;16.60;;;;;;;16.59;100.00;96568.22;5010457;28;20103;-65
2021/09/16 05:32:12;;;;;;;29.77;15.68;;;;;;;16.60;100.00;96569.00;5015821;28;20041;-66
2021/09/16 05:34:38;;;;;;;33.45;15.77;;;;;;;16.65;100.00;96570.53;5021898;28;20497;-69
2021/09/16 05:37:04;;;;;;;29.25;16.02;;;;;;;16.68;100.00;96570.50;5019223;28;20438;-64
2021/09/16 05:39:30;;;;;;;32.20;17.13;;;;;;;16.65;100.00;96571.31;5021432;28;20057;-64
2021/09/16 05:41:55;;;;;;;41.08;17.08;;;;;;;16.67;100.00;96573.69;5025220;28;20107;-66
2021/09/16 05:44:21;;;;;;;33.13;14.82;;;;;;;16.66;100.00;96570.13;5024272;28;20127;-66
2021/09/16 05:46:46;;;;;;;25.60;15.30;;;;;;;16.66;100.00;96572.13;5027104;28;20045;-66
2021/09/16 05:49:11;;;;;;;25.95;14.73;;;;;;;16.74;100.00;96590.97;5017167;28;20359;-64
2021/09/16 05:51:37;;;;;;;24.10;13.73;;;;;;;16.85;100.00;96590.13;5024121;28;20502;-66
2021/09/16 05:54:02;;;;;;;24.40;13.23;;;;;;;16.96;100.00;96585.25;5025954;28;20100;-64
2021/09/16 05:56:28;;;;;;;25.23;13.02;;;;;;;17.09;100.00;96593.84;5026031;28;20072;-66
2021/09/16 05:58:54;;;;;;;24.20;14.95;;;;;;;17.20;100.00;96591.72;5036078;28;20095;-66
2021/09/16 06:01:20;;;;;;;24.35;14.32;;;;;;;17.20;100.00;96588.97;5049992;28;20053;-66
2021/09/16 06:03:45;;;;;;;23.25;13.57;;;;;;;16.97;100.00;96584.06;5055579;28;20063;-65
2021/09/16 06:06:11;;;;;;;27.00;13.95;;;;;;;16.82;100.00;96592.50;5028314;28;20041;-64
2021/09/16 06:08:36;;;;;;;28.92;15.30;;;;;;;16.76;100.00;96579.50;5041662;28;20081;-64
2021/09/16 06:11:01;;;;;;;27.98;16.55;;;;;;;16.73;100.00;96583.91;5027158;28;20033;-66
2021/09/16 06:13:27;;;;;;;32.28;16.00;;;;;;;16.62;100.00;96580.44;5028918;28;20053;-65
2021/09/16 06:15:52;;;;;;;32.42;16.00;;;;;;;16.62;100.00;96584.00;5026947;28;20048;-65
2021/09/16 06:18:17;;;;;;;30.13;18.20;;;;;;;16.58;100.00;96583.25;5020879;28;20399;-63
2021/09/16 06:20:43;;;;;;;40.33;18.55;;;;;;;16.65;100.00;96592.66;5024915;28;20034;-64
2021/09/16 06:23:08;;;;;;;31.92;17.58;;;;;;;16.71;100.00;96588.25;5029955;28;20061;-67
2021/09/16 06:25:33;;;;;;;30.65;17.98;;;;;;;16.70;100.00;96584.72;5045216;28;20045;-65
2021/09/16 06:27:59;;;;;;;36.65;18.20;;;;;;;16.79;100.00;96585.00;5044551;28;20049;-64
2021/09/16 06:30:25;;;;;;;39.42;18.40;;;;;;;16.80;100.00;96594.09;5037529;28;20568;-66
2021/09/16 06:32:50;;;;;;;45.25;21.02;;;;;;;16.87;100.00;96594.06;5038089;28;20037;-65
2021/09/16 06:35:16;;;;;;;34.28;18.02;;;;;;;16.86;100.00;96594.47;5026748;28;20033;-65
2021/09/16 06:37:42;;;;;;;28.30;17.42;;;;;;;16.91;100.00;96596.78;5045297;28;20114;-65
2021/09/16 06:40:09;;;;;;;27.63;16.73;;;;;;;16.97;100.00;96592.38;5028400;28;20034;-64
2021/09/16 06:42:35;;;;;;;33.88;18.63;;;;;;;17.00;100.00;96597.09;5024929;28;20057;-64
2021/09/16 06:45:00;;;;;;;33.83;19.73;;;;;;;17.04;100.00;96599.81;5026600;28;20037;-66
2021/09/16 06:47:25;;;;;;;38.22;20.70;;;;;;;17.06;100.00;96605.72;5025774;28;20398;-64
2021/09/16 06:49:51;;;;;;;38.45;21.98;;;;;;;17.08;100.00;96608.88;5028891;28;20045;-63
2021/09/16 06:52:20;;;;;;;35.05;21.00;;;;;;;17.05;100.00;96613.25;5025147;28;20480;-65
2021/09/16 06:54:46;;;;;;;40.95;21.73;;;;;;;17.07;100.00;96610.03;5032473;28;20052;-65
2021/09/16 06:57:11;;;;;;;37.67;19.17;;;;;;;17.06;100.00;96612.03;5034070;28;20044;-65
2021/09/16 06:59:37;;;;;;;37.78;22.77;;;;;;;17.07;100.00;96613.63;5027956;28;20141;-65
2021/09/16 07:02:03;;;;;;;37.33;20.30;;;;;;;17.12;100.00;96615.13;5022923;28;20048;-65
2021/09/16 07:04:29;;;;;;;39.40;21.23;;;;;;;17.10;100.00;96610.00;5028678;28;20088;-65
2021/09/16 07:06:55;;;;;;;38.03;19.70;;;;;;;17.16;100.00;96618.63;5034380;28;20077;-65
2021/09/16 07:09:20;;;;;;;38.00;20.30;;;;;;;17.16;100.00;96621.41;5022660;28;20037;-66
2021/09/16 07:11:45;;;;;;;32.75;19.08;;;;;;;17.33;100.00;96619.66;5028967;28;20465;-63
2021/09/16 07:14:11;;;;;;;35.42;18.48;;;;;;;17.48;100.00;96621.03;5019456;28;20037;-64
2021/09/16 07:16:36;;;;;;;34.80;18.27;;;;;;;17.63;100.00;96623.63;5031526;28;20055;-65
2021/09/16 07:19:02;;;;;;;28.63;15.52;;;;;;;17.74;100.00;96616.00;5028753;28;20037;-64
2021/09/16 07:21:28;;;;;;;26.42;14.38;;;;;;;17.82;100.00;96616.66;5025391;28;20053;-66
2021/09/16 07:23:53;;;;;;;25.88;14.38;;;;;;;17.90;100.00;96616.19;5039126;28;20084;-64
2021/09/16 07:26:19;;;;;;;21.98;13.77;;;;;;;17.98;100.00;96619.63;5040417;28;20090;-63
2021/09/16 07:28:44;;;;;;;19.55;12.25;;;;;;;18.07;100.00;96622.66;5044381;28;20102;-65
2021/09/16 07:31:09;;;;;;;21.60;11.10;;;;;;;18.22;100.00;96626.03;5039493;28;20067;-63
2021/09/16 07:33:35;;;;;;;45.58;35.97;;;;;;;18.39;100.00;96637.28;5032651;28;20056;-66
2021/09/16 07:36:00;;;;;;;35.60;22.30;;;;;;;18.46;100.00;96632.38;5030260;28;20041;-63
2021/09/16 07:38:26;;;;;;;26.63;16.92;;;;;;;18.67;100.00;96633.22;5018083;28;20144;-65
2021/09/16 07:40:52;;;;;;;36.78;30.67;;;;;;;18.69;100.00;96637.16;5027642;28;20053;-65
2021/09/16 07:43:17;;;;;;;38.35;28.90;;;;;;;18.84;100.00;96629.41;5031288;28;20057;-65
2021/09/16 07:45:43;;;;;;;51.13;41.45;;;;;;;18.81;100.00;96635.00;5042892;28;20043;-63
2021/09/16 07:48:08;;;;;;;29.10;23.17;;;;;;;18.86;100.00;96632.53;5021696;28;20041;-64
2021/09/16 07:50:34;;;;;;;29.13;23.67;;;;;;;18.87;100.00;96631.34;5027912;28;20437;-63
2021/09/16 07:53:00;;;;;;;24.80;18.63;;;;;;;19.04;100.00;96626.66;5037879;28;20037;-63
2021/09/16 07:55:25;;;;;;;22.70;15.77;;;;;;;19.19;100.00;96631.97;5021234;28;20127;-64
2021/09/16 07:57:51;;;;;;;20.40;13.68;;;;;;;19.39;100.00;96630.00;5032763;28;20079;-64
2021/09/16 08:00:17;;;;;;;26.00;15.63;;;;;;;19.35;100.00;96620.94;5036006;28;20033;-64
2021/09/16 08:02:47;;;;;;;41.47;30.60;;;;;;;19.49;100.00;96630.97;5040405;28;20198;-64
2021/09/16 08:05:13;;;;;;;35.80;22.70;;;;;;;19.55;100.00;96628.47;5030113;28;20041;-64
2021/09/16 08:07:39;;;;;;;37.97;26.02;;;;;;;19.63;100.00;96632.69;5039149;28;20044;-64
2021/09/16 08:10:04;;;;;;;19.17;12.07;;;;;;;19.85;100.00;96627.50;5018356;28;20037;-64
2021/09/16 08:12:30;;;;;;;13.35;8.20;;;;;;;20.05;100.00;96624.66;5023297;28;20723;-64
2021/09/16 08:14:55;;;;;;;14.38;7.30;;;;;;;20.15;100.00;96625.63;5032833;28;20040;-63
2021/09/16 08:17:21;;;;;;;14.07;7.03;;;;;;;19.97;100.00;96626.03;5017910;28;20041;-63
2021/09/16 08:19:46;;;;;;;12.15;6.40;;;;;;;19.85;100.00;96633.06;5032357;28;20045;-65
2021/09/16 08:22:12;;;;;;;9.85;6.35;;;;;;;19.65;100.00;96641.38;5036532;28;20413;-64
2021/09/16 08:24:37;;;;;;;11.45;6.40;;;;;;;19.60;100.00;96636.31;5039636;28;20123;-64
2021/09/16 08:27:03;;;;;;;11.90;7.22;;;;;;;19.64;100.00;96635.06;5039984;28;20489;-64
2021/09/16 08:29:30;;;;;;;12.55;6.85;;;;;;;19.60;100.00;96625.97;5040198;28;20049;-65
2021/09/16 08:31:55;;;;;;;13.45;7.13;;;;;;;19.44;100.00;96639.81;5042054;28;20457;-65
2021/09/16 08:34:25;;;;;;;12.00;7.00;;;;;;;19.41;100.00;96633.13;5036966;28;20048;-65
2021/09/16 08:36:50;;;;;;;16.50;7.25;;;;;;;19.99;100.00;96641.09;5041431;28;20512;-64
2021/09/16 08:39:16;;;;;;;18.75;10.55;;;;;;;20.94;100.00;96638.47;5036168;28;20045;-65
2021/09/16 08:41:43;;;;;;;14.93;6.07;;;;;;;21.81;95.71;96628.56;5041026;28;20056;-65
2021/09/16 08:44:09;;;;;;;11.15;4.90;;;;;;;22.81;89.42;96632.25;5031775;28;20051;-65
2021/09/16 08:46:35;;;;;;;10.75;4.63;;;;;;;23.81;80.07;96633.59;5042149;28;20037;-64
2021/09/16 08:49:00;;;;;;;11.40;3.90;;;;;;;23.09;78.29;96636.91;5044096;28;20041;-64
2021/09/16 08:51:26;;;;;;;7.03;3.50;;;;;;;23.04;81.97;96639.47;5036163;28;20375;-64
2021/09/16 08:53:52;;;;;;;7.55;3.50;;;;;;;22.44;81.02;96641.03;5041507;28;20449;-64
2021/09/16 08:56:18;;;;;;;9.38;3.30;;;;;;;22.11;84.04;96638.44;5035386;28;20442;-65
2021/09/16 08:58:45;;;;;;;7.20;3.28;;;;;;;21.62;91.09;96640.66;5041480;28;20052;-64
2021/09/16 09:01:11;;;;;;;5.10;2.20;;;;;;;21.46;87.55;96635.94;5035589;28;20452;-65
2021/09/16 09:03:36;;;;;;;4.60;2.10;;;;;;;21.59;88.74;96634.00;5041598;28;20045;-65
2021/09/16 09:06:02;;;;;;;6.68;2.25;;;;;;;22.05;86.49;96642.22;5038558;28;20048;-64
2021/09/16 09:08:28;;;;;;;4.15;1.50;;;;;;;22.55;78.92;96637.88;5037363;28;20098;-65
2021/09/16 09:10:59;;;;;;;3.45;1.30;;;;;;;22.67;78.39;96633.50;5026821;28;20080;-65
2021/09/16 09:13:34;;;;;;;;;;;;;;;22.54;77.86;96633.53;5020275;28;20525;-65
2021/09/16 09:16:03;;;;;;;3.25;1.38;;;;;;;22.04;80.66;96643.41;5021000;28;19995;-65
2021/09/16 09:18:44;;;;;;;4.28;1.60;;;;;;;21.94;82.44;96636.94;5018891;28;20034;-65
2021/09/16 09:21:11;;;;;;;4.80;1.40;;;;;;;22.79;78.29;96643.88;5016687;28;20041;-63
2021/09/16 09:23:49;;;;;;;3.10;1.40;;;;;;;22.71;78.48;96651.72;5021290;28;20125;-66
2021/09/16 09:26:20;;;;;;;4.22;1.15;;;;;;;22.04;81.13;96647.00;5015630;28;20863;-65
2021/09/16 09:28:46;;;;;;;3.50;1.88;;;;;;;21.78;83.00;96643.38;5021255;28;20044;-67
2021/09/16 09:31:16;;;;;;;12.95;6.13;;;;;;;21.04;86.59;96647.75;5014817;28;20037;-65
2021/09/16 09:33:42;;;;;;;;;;;;;;;20.93;87.45;96641.69;5021671;28;20496;-65
2021/09/16 09:36:11;;;;;;;2.80;1.77;;;;;;;20.61;89.89;96644.03;5018490;28;20000;-65
2021/09/16 09:39:04;;;;;;;3.58;1.60;;;;;;;20.81;91.38;96640.38;5022264;28;20490;-63
2021/09/16 09:41:33;;;;;;;4.10;1.77;;;;;;;21.02;92.59;96636.28;5024125;28;20056;-65
2021/09/16 09:44:13;;;;;;;5.00;2.00;;;;;;;21.18;90.76;96639.03;5025467;28;20398;-64
2021/09/16 09:46:42;;;;;;;3.72;1.88;;;;;;;21.30;88.68;96643.09;5025260;28;20284;-64
2021/09/16 09:49:10;;;;;;;6.47;1.70;;;;;;;21.91;84.45;96644.22;5018864;28;20048;-64
2021/09/16 09:51:48;;;;;;;3.65;1.50;;;;;;;22.05;84.26;96645.00;5024809;28;20044;-66
2021/09/16 09:54:18;;;;;;;5.63;1.75;;;;;;;22.32;79.80;96639.00;5020112;28;20037;-65
2021/09/16 09:57:10;;;;;;;5.63;1.70;;;;;;;22.05;82.42;96642.97;5023491;28;20042;-64
2021/09/16 10:00:09;;;;;;;5.82;1.80;;;;;;;22.12;82.74;96637.19;5023284;28;20042;-65
2021/09/16 10:02:50;;;;;;;3.40;1.60;;;;;;;22.10;81.21;96636.84;5040567;28;20107;-65
2021/09/16 10:05:25;;;;;;;3.65;1.50;;;;;;;22.13;82.34;96640.78;5038324;28;20056;-64
2021/09/16 10:07:51;;;;;;;3.13;1.55;;;;;;;21.93;81.94;96629.78;5025830;28;20048;-64
2021/09/16 10:10:18;;;;;;;4.60;1.85;;;;;;;21.74;81.88;96628.78;5017648;28;20041;-64
2021/09/16 10:12:46;;;;;;;2.53;1.55;;;;;;;21.57;82.75;96622.47;5024669;28;20041;-64
2021/09/16 10:15:17;;;;;;;4.20;1.52;;;;;;;21.57;82.41;96622.47;5019667;28;20425;-64
2021/09/16 10:17:44;;;;;;;5.00;1.80;;;;;;;22.04;80.48;96630.28;5024510;28;20156;-64
2021/09/16 10:20:14;;;;;;;3.45;1.40;;;;;;;21.68;81.05;96627.75;5019542;28;20042;-64
2021/09/16 10:22:41;;;;;;;5.00;2.00;;;;;;;22.02;80.17;96626.34;5025806;28;20494;-66
2021/09/16 10:25:08;;;;;;;9.18;5.55;;;;;;;22.19;79.46;96627.81;5017869;28;20145;-65
2021/09/16 10:27:41;;;;;;;5.20;1.30;;;;;;;22.57;76.36;96629.06;5023896;28;20045;-66
2021/09/16 10:30:22;;;;;;;4.25;2.00;;;;;;;22.88;75.34;96624.41;5019292;28;20132;-65
2021/09/16 10:33:10;;;;;;;4.63;1.60;;;;;;;23.37;72.81;96627.97;5045492;28;20434;-66
2021/09/16 10:35:40;;;;;;;4.53;1.70;;;;;;;23.64;71.36;96630.19;5044151;28;20048;-65
2021/09/16 10:38:19;;;;;;;9.45;1.92;;;;;;;24.05;68.93;96623.47;5027328;28;20037;-65
2021/09/16 10:40:46;;;;;;;4.03;1.75;;;;;;;24.78;66.54;96621.44;5030138;28;20063;-64
2021/09/16 10:43:21;;;;;;;4.65;1.88;;;;;;;25.69;61.60;96617.13;5022972;28;20045;-65
2021/09/16 10:45:47;;;;;;;5.72;1.60;;;;;;;25.11;63.76;96616.03;5024913;28;20116;-65
2021/09/16 10:48:15;;;;;;;5.05;1.60;;;;;;;25.20;64.04;96609.66;5016356;28;20459;-64
2021/09/16 10:50:47;;;;;;;3.85;1.42;;;;;;;25.86;60.93;96605.56;5035677;28;20049;-65
2021/09/16 10:53:37;;;;;;;3.10;1.50;;;;;;;25.46;62.39;96609.34;5028813;28;20041;-64
2021/09/16 10:56:06;;;;;;;2.20;1.40;;;;;;;24.35;64.45;96611.97;5029273;28;20470;-65
2021/09/16 10:58:32;;;;;;;3.50;1.67;;;;;;;23.45;70.19;96612.53;5039268;28;20048;-64
2021/09/16 11:00:57;;;;;;;5.60;1.77;;;;;;;23.07;70.31;96608.66;5043300;28;20037;-64
2021/09/16 11:03:23;;;;;;;4.15;1.50;;;;;;;22.94;71.64;96607.09;5038337;28;20693;-65
2021/09/16 11:05:55;;;;;;;4.32;1.80;;;;;;;22.49;73.46;96603.38;5044220;28;20498;-64
2021/09/16 11:08:42;;;;;;;5.18;1.65;;;;;;;22.79;72.44;96606.81;5023229;28;20041;-63
2021/09/16 11:11:07;;;;;;;5.70;1.80;;;;;;;22.70;73.47;96619.44;5017669;28;20040;-70
2021/09/16 11:13:42;;;;;;;4.50;1.80;;;;;;;22.77;73.22;96612.06;5032231;28;20041;-65
2021/09/16 11:16:08;;;;;;;5.22;1.63;;;;;;;22.58;74.77;96605.50;5014985;28;20068;-65